createdAt,value
2022-10-09T00:00:24.651Z,93.80
2022-10-09T00:01:32.527Z,93.80
2022-10-09T00:02:34.784Z,93.90
2022-10-09T00:03:41.833Z,93.90
2022-10-09T00:04:44.030Z,93.90
2022-10-09T00:05:47.318Z,94.00
2022-10-09T00:06:49.522Z,94.00
2022-10-09T00:07:55.528Z,94.20
2022-10-09T00:08:58.835Z,94.20
2022-10-09T00:10:01.969Z,94.30
2022-10-09T00:11:05.761Z,94.30
2022-10-09T00:12:08.898Z,94.30
2022-10-09T00:13:11.722Z,94.40
2022-10-09T00:14:14.971Z,94.40
2022-10-09T00:15:17.159Z,94.50
2022-10-09T00:16:22.940Z,94.50
2022-10-09T00:17:25.118Z,94.50
2022-10-09T00:18:28.352Z,94.60
2022-10-09T00:19:30.595Z,94.60
2022-10-09T00:20:37.666Z,94.70
2022-10-09T00:21:39.880Z,94.70
2022-10-09T00:22:44.221Z,94.70
2022-10-09T00:23:46.598Z,94.80
2022-10-09T00:24:49.945Z,94.80
2022-10-09T00:25:53.422Z,94.80
2022-10-09T00:26:56.655Z,94.80
2022-10-09T00:27:58.862Z,94.80
2022-10-09T00:29:02.220Z,94.80
2022-10-09T00:30:05.145Z,94.80
2022-10-09T00:31:10.101Z,94.80
2022-10-09T00:32:13.775Z,94.90
2022-10-09T00:33:17.373Z,94.90
2022-10-09T00:34:19.467Z,95.00
2022-10-09T00:35:23.345Z,95.00
2022-10-09T00:36:27.039Z,95.00
2022-10-09T00:37:31.899Z,95.10
2022-10-09T00:38:34.592Z,95.10
2022-10-09T00:39:37.928Z,95.10
2022-10-09T00:40:40.695Z,95.20
2022-10-09T00:41:44.261Z,95.20
2022-10-09T00:42:46.523Z,95.20
2022-10-09T00:43:51.756Z,95.30
2022-10-09T00:45:00.129Z,95.30
2022-10-09T00:46:03.958Z,95.30
2022-10-09T00:47:06.475Z,95.40
2022-10-09T00:48:12.883Z,95.40
2022-10-09T00:49:18.871Z,95.40
2022-10-09T00:50:25.226Z,95.40
2022-10-09T00:51:31.892Z,95.40
2022-10-09T00:52:35.455Z,95.30
2022-10-09T00:53:37.771Z,95.30
2022-10-09T00:54:42.678Z,95.30
2022-10-09T00:55:45.137Z,95.30
2022-10-09T00:56:49.077Z,95.30
2022-10-09T00:57:52.228Z,95.30
2022-10-09T00:58:58.188Z,95.30
2022-10-09T01:00:02.307Z,95.30
2022-10-09T01:01:05.581Z,95.30
2022-10-09T01:02:07.953Z,95.30
2022-10-09T01:03:13.030Z,95.30
2022-10-09T01:04:15.265Z,95.40
2022-10-09T01:05:18.461Z,95.40
2022-10-09T01:06:27.076Z,95.40
2022-10-09T01:07:39.621Z,95.40
2022-10-09T01:08:47.819Z,95.40
2022-10-09T01:09:57.161Z,95.50
2022-10-09T01:11:06.910Z,95.50
2022-10-09T01:12:15.936Z,95.50
2022-10-09T01:13:22.972Z,95.50
2022-10-09T01:14:28.889Z,95.50
2022-10-09T01:15:35.854Z,95.50
2022-10-09T01:16:44.524Z,95.50
2022-10-09T01:17:55.529Z,95.50
2022-10-09T01:19:06.705Z,95.50
2022-10-09T01:20:27.297Z,95.50
2022-10-09T01:21:33.831Z,95.50
2022-10-09T01:22:46.875Z,95.50
2022-10-09T01:24:22.420Z,95.50
2022-10-09T01:25:29.123Z,95.50
2022-10-09T01:26:52.469Z,95.60
2022-10-09T01:27:56.757Z,95.70
2022-10-09T01:29:02.652Z,95.70
2022-10-09T01:30:07.160Z,95.80
2022-10-09T01:31:10.902Z,95.80
2022-10-09T01:32:20.226Z,95.80
2022-10-09T01:33:24.286Z,95.80
2022-10-09T01:34:27.556Z,95.80
2022-10-09T01:35:32.012Z,95.80
2022-10-09T01:36:35.630Z,95.80
2022-10-09T01:37:39.779Z,95.70
2022-10-09T01:38:42.475Z,95.80
2022-10-09T01:39:46.608Z,95.80
2022-10-09T01:40:49.789Z,95.80
2022-10-09T01:41:54.511Z,95.80
2022-10-09T01:43:01.091Z,95.80
2022-10-09T01:44:04.450Z,95.90
2022-10-09T01:45:07.453Z,95.90
2022-10-09T01:46:21.486Z,95.90
2022-10-09T01:47:24.957Z,96.00
2022-10-09T01:48:27.730Z,96.00
2022-10-09T01:49:40.366Z,96.00
2022-10-09T01:50:45.844Z,96.00
2022-10-09T01:51:53.249Z,96.00
2022-10-09T01:52:59.141Z,96.00
2022-10-09T01:54:02.467Z,96.00
2022-10-09T01:55:19.455Z,96.00
2022-10-09T01:56:24.664Z,96.00
2022-10-09T01:57:31.875Z,96.00
2022-10-09T01:58:39.691Z,96.00
2022-10-09T01:59:45.812Z,96.10
2022-10-09T02:00:52.569Z,96.10
2022-10-09T02:01:57.911Z,96.10
2022-10-09T02:03:01.212Z,96.10
2022-10-09T02:04:06.750Z,96.10
2022-10-09T02:05:09.816Z,96.10
2022-10-09T02:06:15.412Z,96.20
2022-10-09T02:07:20.081Z,96.20
2022-10-09T02:08:24.919Z,96.20
2022-10-09T02:09:27.708Z,96.20
2022-10-09T02:10:31.565Z,96.20
2022-10-09T02:11:35.579Z,96.20
2022-10-09T02:12:44.351Z,96.20
2022-10-09T02:13:52.954Z,96.30
2022-10-09T02:14:56.133Z,96.30
2022-10-09T02:16:03.988Z,96.30
2022-10-09T02:17:11.742Z,96.30
2022-10-09T02:18:15.712Z,96.30
2022-10-09T02:19:23.981Z,96.30
2022-10-09T02:20:31.421Z,96.30
2022-10-09T02:21:44.029Z,96.30
2022-10-09T02:22:49.226Z,96.30
2022-10-09T02:23:53.633Z,96.30
2022-10-09T02:24:59.219Z,96.30
2022-10-09T02:26:05.055Z,96.30
2022-10-09T02:27:08.086Z,96.30
2022-10-09T02:28:11.851Z,96.30
2022-10-09T02:29:15.897Z,96.30
2022-10-09T02:30:21.253Z,96.30
2022-10-09T02:31:25.897Z,96.30
2022-10-09T02:32:29.588Z,96.30
2022-10-09T02:33:32.469Z,96.30
2022-10-09T02:34:35.645Z,96.30
2022-10-09T02:35:38.299Z,96.30
2022-10-09T02:36:41.551Z,96.30
2022-10-09T02:37:43.743Z,96.30
2022-10-09T02:38:46.851Z,96.30
2022-10-09T02:39:49.342Z,96.30
2022-10-09T02:40:52.456Z,96.30
2022-10-09T02:41:54.631Z,96.30
2022-10-09T02:42:59.868Z,96.30
2022-10-09T02:44:02.596Z,96.30
2022-10-09T02:45:09.245Z,96.30
2022-10-09T02:46:11.653Z,96.30
2022-10-09T02:47:14.942Z,96.30
2022-10-09T02:48:17.237Z,96.30
2022-10-09T02:49:20.460Z,96.30
2022-10-09T02:50:22.632Z,96.30
2022-10-09T02:51:26.390Z,96.30
2022-10-09T02:52:28.511Z,96.30
2022-10-09T02:53:31.669Z,96.30
2022-10-09T02:54:33.806Z,96.30
2022-10-09T02:55:39.505Z,96.30
2022-10-09T02:56:41.738Z,96.30
2022-10-09T02:57:45.058Z,96.30
2022-10-09T02:58:47.248Z,96.30
2022-10-09T02:59:52.517Z,96.30
2022-10-09T03:00:58.523Z,96.30
2022-10-09T03:02:01.760Z,96.30
2022-10-09T03:03:04.387Z,96.30
2022-10-09T03:04:07.830Z,96.30
2022-10-09T03:05:10.647Z,96.30
2022-10-09T03:06:15.408Z,96.30
2022-10-09T03:07:19.865Z,96.30
2022-10-09T03:08:25.337Z,96.30
2022-10-09T03:09:33.503Z,96.30
2022-10-09T03:10:38.293Z,96.30
2022-10-09T03:11:40.425Z,96.30
2022-10-09T03:12:43.685Z,96.30
2022-10-09T03:13:46.218Z,96.30
2022-10-09T03:14:49.439Z,96.30
2022-10-09T03:15:52.296Z,96.30
2022-10-09T03:18:01.860Z,96.30
2022-10-09T03:19:07.688Z,96.30
2022-10-09T03:20:10.034Z,96.30
2022-10-09T03:21:14.916Z,96.30
2022-10-09T03:22:19.611Z,96.30
2022-10-09T03:23:22.702Z,96.30
2022-10-09T03:24:25.068Z,96.30
2022-10-09T03:25:28.188Z,96.30
2022-10-09T03:26:30.433Z,96.30
2022-10-09T03:27:33.574Z,96.30
2022-10-09T03:28:36.820Z,96.30
2022-10-09T03:29:40.196Z,96.30
2022-10-09T03:30:42.756Z,96.30
2022-10-09T03:31:52.519Z,96.30
2022-10-09T03:32:57.354Z,96.30
2022-10-09T03:34:00.601Z,96.30
2022-10-09T03:35:03.850Z,96.30
2022-10-09T03:36:06.897Z,96.30
2022-10-09T03:37:10.036Z,96.30
2022-10-09T03:38:12.175Z,96.30
2022-10-09T03:39:15.342Z,96.30
2022-10-09T03:40:19.638Z,96.30
2022-10-09T03:41:22.798Z,96.30
2022-10-09T03:42:25.037Z,96.30
2022-10-09T03:43:28.927Z,96.30
2022-10-09T03:44:31.137Z,96.30
2022-10-09T03:45:34.352Z,96.30
2022-10-09T03:46:36.603Z,96.30
2022-10-09T03:47:42.255Z,96.30
2022-10-09T03:48:45.856Z,96.30
2022-10-09T03:49:48.936Z,96.30
2022-10-09T03:50:51.116Z,96.30
2022-10-09T03:51:54.275Z,96.30
2022-10-09T03:52:56.413Z,96.30
2022-10-09T03:53:59.594Z,96.30
2022-10-09T03:55:01.876Z,96.30
2022-10-09T03:56:05.142Z,96.30
2022-10-09T03:57:07.400Z,96.30
2022-10-09T03:58:11.433Z,96.30
2022-10-09T03:59:13.725Z,96.30
2022-10-09T04:00:17.266Z,96.30
2022-10-09T04:01:19.540Z,96.30
2022-10-09T04:02:22.693Z,96.30
2022-10-09T04:03:24.858Z,96.30
2022-10-09T04:04:29.666Z,96.30
2022-10-09T04:05:33.400Z,96.30
2022-10-09T04:06:36.470Z,96.30
2022-10-09T04:07:38.582Z,96.30
2022-10-09T04:08:43.985Z,96.30
2022-10-09T04:09:46.161Z,96.30
2022-10-09T04:10:49.230Z,96.30
2022-10-09T04:11:53.957Z,96.30
2022-10-09T04:12:57.100Z,96.30
2022-10-09T04:13:59.757Z,96.30
2022-10-09T04:15:06.161Z,96.30
2022-10-09T04:16:12.634Z,96.30
2022-10-09T04:17:15.881Z,96.30
2022-10-09T04:18:18.357Z,96.30
2022-10-09T04:19:21.491Z,96.30
2022-10-09T04:20:25.016Z,96.30
2022-10-09T04:21:28.229Z,96.30
2022-10-09T04:22:32.970Z,96.30
2022-10-09T04:23:36.353Z,96.30
2022-10-09T04:24:38.614Z,96.30
2022-10-09T04:25:41.831Z,96.30
2022-10-09T04:26:44.171Z,96.30
2022-10-09T04:27:47.355Z,96.30
2022-10-09T04:28:49.733Z,96.30
2022-10-09T04:29:53.043Z,96.30
2022-10-09T04:30:55.408Z,96.30
2022-10-09T04:31:58.854Z,96.30
2022-10-09T04:33:01.179Z,96.30
2022-10-09T04:34:04.538Z,96.30
2022-10-09T04:35:07.356Z,96.30
2022-10-09T04:36:11.859Z,96.30
2022-10-09T04:37:14.067Z,96.30
2022-10-09T04:38:17.248Z,96.30
2022-10-09T04:39:19.429Z,96.30
2022-10-09T04:40:22.889Z,96.30
2022-10-09T04:41:25.059Z,96.30
2022-10-09T04:42:28.142Z,96.30
2022-10-09T04:43:30.588Z,96.30
2022-10-09T04:44:33.595Z,96.30
2022-10-09T04:45:39.841Z,96.30
2022-10-09T04:46:43.024Z,96.30
2022-10-09T04:47:45.090Z,96.30
2022-10-09T04:48:48.635Z,96.30
2022-10-09T04:49:50.868Z,96.30
2022-10-09T04:50:56.430Z,96.30
2022-10-09T04:51:59.930Z,96.30
2022-10-09T04:53:03.206Z,96.30
2022-10-09T04:54:05.480Z,96.30
2022-10-09T04:55:09.606Z,96.30
2022-10-09T04:56:15.953Z,96.30
2022-10-09T04:57:19.153Z,96.30
2022-10-09T04:58:21.335Z,96.30
2022-10-09T04:59:24.490Z,96.30
2022-10-09T05:00:26.810Z,96.30
2022-10-09T05:01:34.336Z,96.30
2022-10-09T05:02:40.214Z,96.30
2022-10-09T05:03:43.545Z,96.30
2022-10-09T05:04:46.878Z,96.30
2022-10-09T05:05:50.151Z,96.30
2022-10-09T05:06:52.208Z,96.30
2022-10-09T05:07:56.709Z,96.30
2022-10-09T05:08:59.045Z,96.30
2022-10-09T05:10:02.330Z,96.30
2022-10-09T05:11:08.756Z,96.30
2022-10-09T05:12:12.295Z,96.30
2022-10-09T05:13:14.755Z,96.30
2022-10-09T05:14:18.336Z,96.30
2022-10-09T05:15:20.540Z,96.30
2022-10-09T05:16:28.800Z,96.30
2022-10-09T05:17:31.108Z,96.30
2022-10-09T05:18:34.760Z,96.30
2022-10-09T05:19:36.961Z,96.30
2022-10-09T05:20:41.680Z,96.30
2022-10-09T05:21:44.032Z,96.30
2022-10-09T05:22:48.324Z,96.30
2022-10-09T05:23:53.825Z,96.30
2022-10-09T05:24:57.006Z,96.30
2022-10-09T05:26:01.378Z,96.30
2022-10-09T05:27:04.651Z,96.30
2022-10-09T05:28:06.987Z,96.30
2022-10-09T05:29:10.106Z,96.30
2022-10-09T05:30:12.608Z,96.30
2022-10-09T05:31:19.116Z,96.30
2022-10-09T05:32:21.761Z,96.30
2022-10-09T05:33:24.984Z,96.30
2022-10-09T05:34:27.122Z,96.30
2022-10-09T05:35:30.464Z,96.30
2022-10-09T05:36:32.823Z,96.30
2022-10-09T05:37:36.094Z,96.30
2022-10-09T05:38:38.603Z,96.30
2022-10-09T05:39:43.064Z,96.30
2022-10-09T05:40:52.031Z,96.30
2022-10-09T05:41:55.241Z,96.30
2022-10-09T05:42:57.609Z,96.30
2022-10-09T05:44:02.551Z,96.30
2022-10-09T05:45:08.609Z,96.30
2022-10-09T05:46:15.749Z,96.30
2022-10-09T05:47:19.869Z,96.30
2022-10-09T05:48:23.606Z,96.30
2022-10-09T05:49:26.854Z,96.30
2022-10-09T05:50:29.080Z,96.30
2022-10-09T05:51:36.605Z,96.30
2022-10-09T05:52:40.083Z,96.30
2022-10-09T05:53:44.947Z,96.30
2022-10-09T05:54:49.834Z,96.30
2022-10-09T05:55:53.029Z,96.30
2022-10-09T05:56:56.341Z,96.30
2022-10-09T05:57:58.519Z,96.30
2022-10-09T05:59:06.096Z,96.30
2022-10-09T06:00:09.670Z,96.30
2022-10-09T06:01:15.467Z,96.30
2022-10-09T06:02:17.780Z,96.30
2022-10-09T06:03:21.120Z,96.30
2022-10-09T06:04:24.564Z,96.30
2022-10-09T06:05:27.665Z,96.30
2022-10-09T06:06:31.704Z,96.30
2022-10-09T06:07:34.887Z,96.30
2022-10-09T06:08:38.281Z,96.30
2022-10-09T06:09:43.657Z,96.30
2022-10-09T06:10:49.305Z,96.30
2022-10-09T06:11:53.355Z,96.30
2022-10-09T06:12:58.246Z,96.30
2022-10-09T06:14:02.780Z,96.30
2022-10-09T06:15:05.518Z,96.30
2022-10-09T06:16:08.999Z,96.30
2022-10-09T06:17:12.138Z,96.30
2022-10-09T06:18:14.451Z,96.30
2022-10-09T06:19:18.744Z,96.30
2022-10-09T06:20:20.909Z,96.30
2022-10-09T06:21:25.329Z,96.30
2022-10-09T06:22:27.492Z,96.30
2022-10-09T06:23:32.186Z,96.30
2022-10-09T06:24:34.557Z,96.30
2022-10-09T06:25:37.791Z,96.30
2022-10-09T06:26:41.435Z,96.30
2022-10-09T06:27:44.775Z,96.30
2022-10-09T06:28:47.668Z,96.30
2022-10-09T06:29:50.931Z,96.30
2022-10-09T06:30:53.191Z,96.30
2022-10-09T06:31:56.394Z,96.30
2022-10-09T06:32:58.555Z,96.30
2022-10-09T06:34:03.197Z,96.30
2022-10-09T06:35:08.813Z,96.30
2022-10-09T06:36:13.816Z,96.30
2022-10-09T06:37:18.009Z,96.30
2022-10-09T06:38:21.332Z,96.30
2022-10-09T06:39:23.526Z,96.30
2022-10-09T06:40:26.892Z,96.30
2022-10-09T06:41:31.288Z,96.30
2022-10-09T06:42:34.867Z,96.30
2022-10-09T06:43:51.800Z,96.30
2022-10-09T06:44:54.048Z,96.30
2022-10-09T06:46:02.286Z,96.30
2022-10-09T06:47:05.863Z,96.30
2022-10-09T06:48:08.238Z,96.30
2022-10-09T06:49:12.077Z,96.30
2022-10-09T06:50:16.146Z,96.30
2022-10-09T06:51:21.519Z,96.30
2022-10-09T06:52:23.814Z,96.30
2022-10-09T06:53:26.999Z,96.20
2022-10-09T06:54:29.296Z,95.70
2022-10-09T06:55:32.712Z,95.20
2022-10-09T06:56:38.562Z,94.60
2022-10-09T06:57:42.119Z,94.30
2022-10-09T06:58:45.906Z,93.70
2022-10-09T06:59:50.146Z,93.10
2022-10-09T07:01:02.628Z,92.70
2022-10-09T07:02:05.866Z,92.10
2022-10-09T07:03:09.444Z,92.00
2022-10-09T07:04:14.319Z,91.50
2022-10-09T07:05:16.909Z,90.70
2022-10-09T07:06:23.960Z,90.10
2022-10-09T07:07:26.166Z,89.30
2022-10-09T07:08:29.432Z,88.80
2022-10-09T07:09:31.981Z,88.40
2022-10-09T07:10:35.244Z,87.80
2022-10-09T07:11:40.694Z,86.90
2022-10-09T07:12:45.230Z,86.60
2022-10-09T07:13:48.500Z,86.20
2022-10-09T07:14:51.769Z,85.30
2022-10-09T07:15:58.024Z,84.50
2022-10-09T07:17:03.522Z,83.80
2022-10-09T07:18:05.998Z,83.40
2022-10-09T07:19:11.419Z,83.10
2022-10-09T07:20:13.860Z,82.40
2022-10-09T07:21:17.286Z,81.80
2022-10-09T07:22:22.520Z,81.40
2022-10-09T07:23:29.451Z,81.20
2022-10-09T07:24:32.688Z,79.90
2022-10-09T07:25:37.735Z,78.90
2022-10-09T07:26:45.682Z,78.20
2022-10-09T07:27:50.294Z,77.80
2022-10-09T07:28:55.198Z,77.10
2022-10-09T07:29:58.693Z,76.70
2022-10-09T07:31:03.201Z,76.20
2022-10-09T07:32:10.331Z,75.50
2022-10-09T07:33:12.847Z,74.90
2022-10-09T07:34:16.259Z,74.20
2022-10-09T07:35:18.566Z,73.70
2022-10-09T07:36:21.998Z,73.10
2022-10-09T07:37:27.188Z,73.00
2022-10-09T07:38:32.057Z,72.80
2022-10-09T07:39:36.452Z,72.10
2022-10-09T07:40:38.766Z,71.90
2022-10-09T07:41:42.123Z,71.80
2022-10-09T07:42:47.802Z,71.30
2022-10-09T07:43:51.634Z,70.90
2022-10-09T07:44:54.947Z,70.60
2022-10-09T07:46:01.130Z,70.30
2022-10-09T07:47:04.507Z,69.60
2022-10-09T07:48:06.720Z,68.60
2022-10-09T07:49:10.663Z,68.40
2022-10-09T07:50:13.118Z,67.10
2022-10-09T07:51:19.211Z,66.90
2022-10-09T07:52:21.523Z,67.80
2022-10-09T07:53:24.982Z,66.40
2022-10-09T07:54:28.448Z,67.00
2022-10-09T07:55:30.940Z,66.10
2022-10-09T07:56:36.394Z,66.90
2022-10-09T07:57:39.030Z,67.00
2022-10-09T07:58:42.624Z,66.70
2022-10-09T07:59:47.427Z,67.30
2022-10-09T08:00:49.859Z,67.70
2022-10-09T08:01:56.204Z,67.40
2022-10-09T08:03:00.644Z,67.40
2022-10-09T08:04:04.421Z,66.80
2022-10-09T08:05:07.262Z,67.00
2022-10-09T08:06:10.739Z,66.40
2022-10-09T08:07:13.987Z,66.50
2022-10-09T08:08:16.217Z,66.40
2022-10-09T08:09:19.482Z,66.40
2022-10-09T08:10:21.876Z,66.30
2022-10-09T08:11:26.615Z,64.90
2022-10-09T08:12:29.126Z,65.00
2022-10-09T08:13:34.699Z,64.10
2022-10-09T08:14:36.893Z,63.80
2022-10-09T08:15:43.652Z,63.80
2022-10-09T08:16:45.978Z,63.50
2022-10-09T08:17:49.135Z,62.60
2022-10-09T08:18:54.858Z,62.30
2022-10-09T08:19:58.532Z,62.10
2022-10-09T08:21:02.530Z,61.30
2022-10-09T08:22:05.698Z,61.20
2022-10-09T08:23:08.032Z,62.10
2022-10-09T08:24:13.774Z,61.70
2022-10-09T08:25:16.307Z,61.50
2022-10-09T08:26:22.056Z,60.70
2022-10-09T08:27:24.311Z,60.80
2022-10-09T08:28:27.866Z,63.20
2022-10-09T08:29:30.411Z,62.50
2022-10-09T08:30:34.336Z,61.40
2022-10-09T08:31:39.453Z,60.20
2022-10-09T08:32:44.926Z,60.10
2022-10-09T08:33:47.427Z,60.40
2022-10-09T08:34:51.289Z,60.00
2022-10-09T08:35:54.460Z,58.90
2022-10-09T08:36:57.755Z,58.60
2022-10-09T08:37:59.994Z,59.00
2022-10-09T08:39:03.566Z,60.30
2022-10-09T08:40:07.188Z,58.50
2022-10-09T08:41:15.783Z,59.20
2022-10-09T08:42:27.553Z,58.70
2022-10-09T08:43:34.803Z,58.20
2022-10-09T08:44:40.033Z,57.60
2022-10-09T08:45:45.976Z,58.50
2022-10-09T08:46:59.643Z,57.70
2022-10-09T08:48:07.796Z,58.00
2022-10-09T08:49:16.622Z,58.00
2022-10-09T08:50:23.114Z,57.10
2022-10-09T08:51:30.566Z,57.70
2022-10-09T08:52:41.212Z,58.00
2022-10-09T08:53:47.479Z,56.60
2022-10-09T08:54:51.127Z,57.70
2022-10-09T08:55:56.002Z,58.10
2022-10-09T08:57:00.898Z,57.20
2022-10-09T08:58:06.517Z,59.40
2022-10-09T08:59:11.793Z,58.30
2022-10-09T09:00:18.703Z,57.40
2022-10-09T09:01:29.395Z,58.60
2022-10-09T09:02:47.067Z,57.40
2022-10-09T09:04:00.163Z,55.80
2022-10-09T09:05:14.035Z,54.00
2022-10-09T09:06:23.522Z,55.00
2022-10-09T09:07:30.629Z,54.90
2022-10-09T09:08:44.199Z,55.30
2022-10-09T09:09:53.388Z,55.60
2022-10-09T09:11:19.371Z,56.10
2022-10-09T09:12:30.816Z,57.80
2022-10-09T09:13:45.538Z,55.40
2022-10-09T09:14:58.892Z,55.00
2022-10-09T09:16:04.939Z,55.40
2022-10-09T09:17:16.638Z,55.70
2022-10-09T09:18:30.221Z,57.50
2022-10-09T09:19:44.112Z,55.50
2022-10-09T09:20:51.642Z,54.90
2022-10-09T09:21:55.502Z,54.90
2022-10-09T09:23:00.399Z,53.50
2022-10-09T09:24:06.363Z,55.10
2022-10-09T09:25:19.851Z,52.90
2022-10-09T09:26:23.345Z,53.30
2022-10-09T09:27:31.557Z,52.60
2022-10-09T09:28:34.889Z,52.90
2022-10-09T09:29:41.945Z,53.90
2022-10-09T09:30:47.529Z,55.00
2022-10-09T09:31:55.333Z,54.70
2022-10-09T09:33:02.852Z,55.00
2022-10-09T09:34:12.103Z,54.40
2022-10-09T09:35:22.522Z,53.70
2022-10-09T09:36:26.934Z,53.80
2022-10-09T09:37:30.126Z,55.10
2022-10-09T09:38:34.653Z,53.00
2022-10-09T09:41:00.662Z,53.30
2022-10-09T09:42:13.100Z,53.70
2022-10-09T09:43:20.870Z,52.80
2022-10-09T09:44:25.526Z,53.60
2022-10-09T09:45:29.686Z,53.80
2022-10-09T09:46:32.487Z,54.00
2022-10-09T09:47:39.923Z,52.30
2022-10-09T09:48:43.805Z,51.10
2022-10-09T09:49:59.968Z,50.60
2022-10-09T09:51:26.945Z,49.10
2022-10-09T09:52:29.226Z,50.70
2022-10-09T09:53:34.963Z,51.20
2022-10-09T09:54:39.284Z,51.60
2022-10-09T09:55:43.497Z,51.50
2022-10-09T09:58:15.877Z,52.60
2022-10-09T09:59:30.048Z,50.50
2022-10-09T10:00:33.943Z,50.90
2022-10-09T10:01:36.636Z,51.20
2022-10-09T10:02:40.057Z,54.30
2022-10-09T10:03:50.059Z,52.40
2022-10-09T10:04:56.509Z,58.10
2022-10-09T10:05:59.685Z,51.90
2022-10-09T10:07:02.582Z,50.00
2022-10-09T10:08:23.923Z,51.70
2022-10-09T10:09:27.097Z,51.40
2022-10-09T10:10:33.094Z,51.50
2022-10-09T10:11:35.842Z,51.60
2022-10-09T10:12:42.467Z,53.20
2022-10-09T10:13:49.313Z,54.30
2022-10-09T10:14:52.965Z,54.10
2022-10-09T10:15:58.122Z,53.00
2022-10-09T10:17:01.019Z,52.90
2022-10-09T10:18:08.553Z,52.40
2022-10-09T10:19:22.059Z,51.30
2022-10-09T10:20:26.528Z,50.40
2022-10-09T10:21:40.104Z,50.20
2022-10-09T10:22:46.560Z,51.50
2022-10-09T10:23:53.501Z,51.30
2022-10-09T10:24:58.352Z,50.90
2022-10-09T10:26:04.244Z,49.90
2022-10-09T10:27:14.094Z,51.10
2022-10-09T10:28:22.048Z,51.00
2022-10-09T10:29:33.160Z,50.60
2022-10-09T10:30:36.504Z,49.70
2022-10-09T10:31:52.107Z,51.90
2022-10-09T10:32:58.945Z,51.00
2022-10-09T10:34:04.386Z,52.20
2022-10-09T10:35:11.334Z,53.00
2022-10-09T10:36:18.667Z,52.50
2022-10-09T10:37:28.637Z,53.20
2022-10-09T10:38:34.698Z,53.00
2022-10-09T10:39:41.595Z,54.20
2022-10-09T10:40:48.923Z,54.00
2022-10-09T10:41:52.894Z,53.00
2022-10-09T10:43:16.292Z,51.40
2022-10-09T10:44:23.113Z,54.70
2022-10-09T10:45:32.166Z,52.10
2022-10-09T10:46:39.768Z,54.30
2022-10-09T10:47:46.342Z,53.50
2022-10-09T10:48:50.164Z,54.40
2022-10-09T10:49:53.393Z,57.80
2022-10-09T10:51:03.408Z,55.00
2022-10-09T10:52:21.444Z,55.80
2022-10-09T10:53:32.142Z,55.60
2022-10-09T10:54:40.096Z,55.60
2022-10-09T10:55:52.002Z,55.70
2022-10-09T10:57:00.158Z,55.20
2022-10-09T10:58:13.656Z,54.90
2022-10-09T10:59:36.132Z,57.10
2022-10-09T11:00:49.297Z,54.90
2022-10-09T11:02:04.656Z,56.70
2022-10-09T11:03:17.867Z,57.60
2022-10-09T11:04:33.694Z,54.80
2022-10-09T11:05:58.519Z,56.80
2022-10-09T11:07:07.925Z,56.40
2022-10-09T11:08:31.898Z,57.90
2022-10-09T11:09:41.726Z,57.10
2022-10-09T11:10:54.120Z,56.90
2022-10-09T11:12:04.176Z,58.40
2022-10-09T11:13:11.985Z,57.00
2022-10-09T11:14:22.796Z,57.00
2022-10-09T11:15:37.459Z,56.40
2022-10-09T11:16:49.030Z,53.60
2022-10-09T11:17:57.601Z,55.70
2022-10-09T11:19:22.183Z,55.30
2022-10-09T11:20:45.761Z,56.40
2022-10-09T11:21:56.050Z,57.30
2022-10-09T11:23:06.866Z,57.20
2022-10-09T11:24:32.546Z,55.90
2022-10-09T11:25:43.727Z,53.90
2022-10-09T11:26:57.510Z,53.90
2022-10-09T11:28:08.118Z,54.20
2022-10-09T11:29:13.257Z,53.60
2022-10-09T11:30:19.593Z,53.90
2022-10-09T11:31:29.593Z,54.00
2022-10-09T11:32:36.860Z,54.30
2022-10-09T11:33:43.418Z,53.20
2022-10-09T11:34:51.263Z,56.30
2022-10-09T11:35:58.992Z,54.70
2022-10-09T11:37:01.486Z,55.10
2022-10-09T11:38:08.132Z,55.10
2022-10-09T11:39:15.289Z,53.60
2022-10-09T11:40:23.214Z,54.50
2022-10-09T11:41:28.105Z,54.60
2022-10-09T11:42:31.040Z,55.10
2022-10-09T11:43:55.734Z,52.30
2022-10-09T11:45:08.776Z,52.70
2022-10-09T11:46:15.703Z,54.30
2022-10-09T11:47:23.079Z,52.80
2022-10-09T11:48:33.294Z,53.80
2022-10-09T11:49:42.566Z,53.80
2022-10-09T11:50:51.887Z,54.90
2022-10-09T11:51:58.107Z,54.20
2022-10-09T11:53:03.896Z,54.10
2022-10-09T11:54:14.032Z,53.80
2022-10-09T11:55:22.433Z,52.80
2022-10-09T11:56:27.477Z,53.90
2022-10-09T11:57:30.154Z,54.90
2022-10-09T11:58:36.556Z,56.10
2022-10-09T11:59:42.359Z,53.10
2022-10-09T12:00:47.105Z,53.60
2022-10-09T12:01:49.299Z,54.40
2022-10-09T12:02:59.106Z,55.10
2022-10-09T12:04:06.053Z,55.30
2022-10-09T12:05:19.428Z,53.80
2022-10-09T12:06:22.802Z,54.30
2022-10-09T12:07:33.426Z,56.20
2022-10-09T12:08:40.740Z,56.20
2022-10-09T12:09:46.158Z,58.30
2022-10-09T12:10:55.150Z,67.40
2022-10-09T12:12:00.257Z,56.30
2022-10-09T12:13:06.070Z,56.20
2022-10-09T12:14:13.163Z,56.70
2022-10-09T12:15:27.324Z,57.50
2022-10-09T12:16:38.073Z,57.20
2022-10-09T12:17:49.950Z,53.90
2022-10-09T12:18:52.428Z,55.60
2022-10-09T12:20:01.030Z,55.80
2022-10-09T12:21:05.615Z,56.30
2022-10-09T12:22:15.267Z,55.40
2022-10-09T12:23:27.743Z,55.00
2022-10-09T12:24:35.672Z,56.30
2022-10-09T12:25:43.966Z,56.70
2022-10-09T12:26:49.705Z,55.20
2022-10-09T12:27:53.855Z,56.60
2022-10-09T12:28:59.718Z,57.00
2022-10-09T12:30:07.605Z,57.90
2022-10-09T12:31:18.785Z,60.40
2022-10-09T12:32:28.525Z,59.80
2022-10-09T12:33:35.571Z,61.30
2022-10-09T12:34:43.235Z,57.60
2022-10-09T12:35:47.642Z,58.70
2022-10-09T12:36:50.944Z,57.70
2022-10-09T12:37:56.239Z,55.40
2022-10-09T12:39:12.869Z,55.80
2022-10-09T12:40:17.943Z,55.60
2022-10-09T12:41:24.996Z,55.10
2022-10-09T12:42:28.731Z,55.00
2022-10-09T12:43:36.401Z,56.90
2022-10-09T12:44:41.029Z,58.20
2022-10-09T12:45:46.037Z,56.30
2022-10-09T12:46:48.239Z,54.20
2022-10-09T12:47:52.025Z,52.90
2022-10-09T12:48:54.606Z,52.40
2022-10-09T12:49:59.907Z,53.70
2022-10-09T12:51:03.248Z,54.50
2022-10-09T12:52:14.216Z,55.30
2022-10-09T12:53:19.311Z,55.10
2022-10-09T12:54:22.222Z,57.80
2022-10-09T12:55:28.869Z,56.80
2022-10-09T12:56:33.129Z,54.60
2022-10-09T12:57:38.009Z,56.00
2022-10-09T12:58:43.739Z,56.00
2022-10-09T12:59:47.996Z,56.60
2022-10-09T13:00:52.382Z,58.20
2022-10-09T13:01:59.918Z,59.90
2022-10-09T13:03:02.518Z,59.30
2022-10-09T13:04:08.483Z,60.10
2022-10-09T13:05:10.830Z,58.80
2022-10-09T13:06:18.648Z,58.20
2022-10-09T13:07:23.531Z,56.10
2022-10-09T13:08:28.987Z,58.00
2022-10-09T13:09:34.934Z,57.30
2022-10-09T13:10:38.140Z,58.00
2022-10-09T13:11:43.368Z,58.40
2022-10-09T13:12:53.772Z,58.90
2022-10-09T13:13:56.054Z,58.70
2022-10-09T13:15:00.866Z,59.40
2022-10-09T13:16:06.397Z,58.70
2022-10-09T13:17:25.812Z,57.60
2022-10-09T13:18:29.450Z,58.60
2022-10-09T13:19:35.684Z,58.50
2022-10-09T13:20:39.252Z,59.40
2022-10-09T13:21:41.498Z,57.90
2022-10-09T13:22:54.649Z,58.70
2022-10-09T13:24:06.986Z,59.20
2022-10-09T13:25:10.394Z,57.80
2022-10-09T13:26:16.995Z,57.00
2022-10-09T13:27:20.858Z,57.10
2022-10-09T13:28:27.164Z,57.40
2022-10-09T13:29:32.900Z,57.50
2022-10-09T13:30:36.184Z,55.40
2022-10-09T13:31:42.649Z,56.20
2022-10-09T13:32:46.137Z,57.90
2022-10-09T13:33:48.873Z,56.50
2022-10-09T13:34:55.016Z,56.80
2022-10-09T13:35:57.260Z,56.40
2022-10-09T13:37:00.398Z,57.00
2022-10-09T13:38:03.637Z,62.10
2022-10-09T13:39:10.874Z,59.80
2022-10-09T13:40:18.081Z,59.70
2022-10-09T13:41:23.086Z,56.90
2022-10-09T13:42:28.440Z,56.20
2022-10-09T13:43:32.506Z,55.50
2022-10-09T13:44:35.773Z,57.50
2022-10-09T13:45:38.060Z,56.70
2022-10-09T13:46:41.297Z,56.90
2022-10-09T13:47:43.543Z,56.80
2022-10-09T13:48:46.836Z,57.60
2022-10-09T13:49:49.124Z,56.20
2022-10-09T13:50:52.440Z,58.10
2022-10-09T13:51:54.649Z,54.90
2022-10-09T13:52:57.893Z,54.00
2022-10-09T13:54:00.376Z,55.30
2022-10-09T13:55:03.633Z,53.70
2022-10-09T13:56:08.559Z,55.50
2022-10-09T13:57:11.081Z,57.00
2022-10-09T13:58:14.287Z,58.90
2022-10-09T13:59:18.017Z,58.90
2022-10-09T14:00:23.659Z,60.60
2022-10-09T14:01:26.105Z,60.00
2022-10-09T14:02:29.313Z,58.40
2022-10-09T14:03:31.652Z,56.70
2022-10-09T14:04:34.835Z,58.10
2022-10-09T14:05:37.108Z,57.50
2022-10-09T14:06:40.594Z,55.80
2022-10-09T14:07:45.063Z,55.40